sensor_id;sensor_type;location;lat;lon;timestamp;P1;durP1;ratioP1;P2;durP2;ratioP2
52934;SDS011;38802;50.198;19.796;2024-01-11T00:01:11;48.00;;;21.50;;
52934;SDS011;38802;50.198;19.796;2024-01-11T00:03:40;43.80;;;20.00;;
52934;SDS011;38802;50.198;19.796;2024-01-11T00:06:07;46.80;;;23.40;;
52934;SDS011;38802;50.198;19.796;2024-01-11T00:08:36;51.00;;;23.50;;
52934;SDS011;38802;50.198;19.796;2024-01-11T00:11:04;47.80;;;22.60;;
52934;SDS011;38802;50.198;19.796;2024-01-11T00:13:32;50.00;;;22.40;;
52934;SDS011;38802;50.198;19.796;2024-01-11T00:16:00;47.20;;;23.10;;
52934;SDS011;38802;50.198;19.796;2024-01-11T00:18:28;48.10;;;22.70;;
52934;SDS011;38802;50.198;19.796;2024-01-11T00:20:56;36.90;;;20.30;;
52934;SDS011;38802;50.198;19.796;2024-01-11T00:23:24;35.50;;;19.20;;
52934;SDS011;38802;50.198;19.796;2024-01-11T00:25:52;39.50;;;17.20;;
52934;SDS011;38802;50.198;19.796;2024-01-11T00:28:20;42.10;;;20.00;;
52934;SDS011;38802;50.198;19.796;2024-01-11T00:30:49;36.00;;;17.80;;
52934;SDS011;38802;50.198;19.796;2024-01-11T00:33:17;38.50;;;20.10;;
52934;SDS011;38802;50.198;19.796;2024-01-11T00:35:45;37.70;;;18.70;;
52934;SDS011;38802;50.198;19.796;2024-01-11T00:38:13;33.70;;;18.40;;
52934;SDS011;38802;50.198;19.796;2024-01-11T00:40:41;32.60;;;17.40;;
52934;SDS011;38802;50.198;19.796;2024-01-11T00:43:09;37.40;;;18.30;;
52934;SDS011;38802;50.198;19.796;2024-01-11T00:45:37;38.20;;;18.10;;
52934;SDS011;38802;50.198;19.796;2024-01-11T00:48:05;35.00;;;17.80;;
52934;SDS011;38802;50.198;19.796;2024-01-11T00:50:34;38.40;;;17.00;;
52934;SDS011;38802;50.198;19.796;2024-01-11T00:53:02;36.00;;;18.30;;
52934;SDS011;38802;50.198;19.796;2024-01-11T00:55:30;33.40;;;15.80;;
52934;SDS011;38802;50.198;19.796;2024-01-11T00:57:58;27.40;;;15.60;;
52934;SDS011;38802;50.198;19.796;2024-01-11T01:00:26;34.30;;;17.00;;
52934;SDS011;38802;50.198;19.796;2024-01-11T01:02:55;30.30;;;16.00;;
52934;SDS011;38802;50.198;19.796;2024-01-11T01:05:22;33.30;;;16.10;;
52934;SDS011;38802;50.198;19.796;2024-01-11T01:07:51;34.90;;;16.20;;
52934;SDS011;38802;50.198;19.796;2024-01-11T01:10:19;26.90;;;15.30;;
52934;SDS011;38802;50.198;19.796;2024-01-11T01:12:47;33.50;;;16.00;;
52934;SDS011;38802;50.198;19.796;2024-01-11T01:15:15;31.00;;;16.10;;
52934;SDS011;38802;50.198;19.796;2024-01-11T01:17:43;28.70;;;15.30;;
52934;SDS011;38802;50.198;19.796;2024-01-11T01:20:11;27.90;;;14.90;;
52934;SDS011;38802;50.198;19.796;2024-01-11T01:22:39;31.10;;;16.20;;
52934;SDS011;38802;50.198;19.796;2024-01-11T01:25:07;28.00;;;15.40;;
52934;SDS011;38802;50.198;19.796;2024-01-11T01:27:35;30.00;;;16.90;;
52934;SDS011;38802;50.198;19.796;2024-01-11T01:30:04;29.40;;;15.80;;
52934;SDS011;38802;50.198;19.796;2024-01-11T01:32:32;28.70;;;15.80;;
52934;SDS011;38802;50.198;19.796;2024-01-11T01:35:01;29.60;;;15.70;;
52934;SDS011;38802;50.198;19.796;2024-01-11T01:37:29;28.90;;;14.40;;
52934;SDS011;38802;50.198;19.796;2024-01-11T01:39:57;26.30;;;13.50;;
52934;SDS011;38802;50.198;19.796;2024-01-11T01:42:25;28.50;;;15.00;;
52934;SDS011;38802;50.198;19.796;2024-01-11T01:44:53;21.60;;;14.30;;
52934;SDS011;38802;50.198;19.796;2024-01-11T01:47:21;22.70;;;14.40;;
52934;SDS011;38802;50.198;19.796;2024-01-11T01:49:49;26.40;;;13.50;;
52934;SDS011;38802;50.198;19.796;2024-01-11T01:52:18;24.80;;;14.70;;
52934;SDS011;38802;50.198;19.796;2024-01-11T01:54:47;26.60;;;14.60;;
52934;SDS011;38802;50.198;19.796;2024-01-11T01:57:17;23.60;;;15.30;;
52934;SDS011;38802;50.198;19.796;2024-01-11T01:59:49;23.20;;;13.20;;
52934;SDS011;38802;50.198;19.796;2024-01-11T02:02:19;26.10;;;14.90;;
52934;SDS011;38802;50.198;19.796;2024-01-11T02:04:49;23.80;;;13.90;;
52934;SDS011;38802;50.198;19.796;2024-01-11T02:07:17;29.10;;;13.50;;
52934;SDS011;38802;50.198;19.796;2024-01-11T02:09:46;23.70;;;13.80;;
52934;SDS011;38802;50.198;19.796;2024-01-11T02:12:15;18.00;;;12.00;;
52934;SDS011;38802;50.198;19.796;2024-01-11T02:14:44;21.20;;;13.90;;
52934;SDS011;38802;50.198;19.796;2024-01-11T02:17:13;20.30;;;13.70;;
52934;SDS011;38802;50.198;19.796;2024-01-11T02:19:41;21.70;;;13.60;;
52934;SDS011;38802;50.198;19.796;2024-01-11T02:22:12;23.40;;;13.00;;
52934;SDS011;38802;50.198;19.796;2024-01-11T02:24:46;21.00;;;12.00;;
52934;SDS011;38802;50.198;19.796;2024-01-11T02:27:14;20.30;;;12.00;;
52934;SDS011;38802;50.198;19.796;2024-01-11T02:29:42;22.60;;;12.60;;
52934;SDS011;38802;50.198;19.796;2024-01-11T02:32:10;22.10;;;12.20;;
52934;SDS011;38802;50.198;19.796;2024-01-11T02:34:39;20.10;;;12.40;;
52934;SDS011;38802;50.198;19.796;2024-01-11T02:37:08;21.10;;;11.60;;
52934;SDS011;38802;50.198;19.796;2024-01-11T02:39:36;14.60;;;9.80;;
52934;SDS011;38802;50.198;19.796;2024-01-11T02:42:05;17.20;;;11.60;;
52934;SDS011;38802;50.198;19.796;2024-01-11T02:44:33;20.00;;;11.30;;
52934;SDS011;38802;50.198;19.796;2024-01-11T02:47:01;15.70;;;11.30;;
52934;SDS011;38802;50.198;19.796;2024-01-11T02:49:30;20.50;;;11.40;;
52934;SDS011;38802;50.198;19.796;2024-01-11T02:51:58;21.40;;;12.00;;
52934;SDS011;38802;50.198;19.796;2024-01-11T02:54:26;20.70;;;13.20;;
52934;SDS011;38802;50.198;19.796;2024-01-11T02:56:54;20.70;;;12.10;;
52934;SDS011;38802;50.198;19.796;2024-01-11T02:59:22;21.80;;;14.30;;
52934;SDS011;38802;50.198;19.796;2024-01-11T03:01:51;29.30;;;16.50;;
52934;SDS011;38802;50.198;19.796;2024-01-11T03:04:19;27.40;;;15.60;;
52934;SDS011;38802;50.198;19.796;2024-01-11T03:06:48;21.90;;;14.50;;
52934;SDS011;38802;50.198;19.796;2024-01-11T03:09:16;31.90;;;15.50;;
52934;SDS011;38802;50.198;19.796;2024-01-11T03:11:44;23.70;;;14.10;;
52934;SDS011;38802;50.198;19.796;2024-01-11T03:14:12;18.80;;;14.60;;
52934;SDS011;38802;50.198;19.796;2024-01-11T03:16:40;24.60;;;14.50;;
52934;SDS011;38802;50.198;19.796;2024-01-11T03:19:09;25.80;;;14.50;;
52934;SDS011;38802;50.198;19.796;2024-01-11T03:21:46;23.20;;;13.00;;
52934;SDS011;38802;50.198;19.796;2024-01-11T03:24:14;22.60;;;13.60;;
52934;SDS011;38802;50.198;19.796;2024-01-11T03:26:42;26.80;;;14.30;;
52934;SDS011;38802;50.198;19.796;2024-01-11T03:29:11;23.10;;;13.60;;
52934;SDS011;38802;50.198;19.796;2024-01-11T03:31:39;24.00;;;13.20;;
52934;SDS011;38802;50.198;19.796;2024-01-11T03:34:09;20.20;;;12.50;;
52934;SDS011;38802;50.198;19.796;2024-01-11T03:36:37;23.40;;;14.20;;
52934;SDS011;38802;50.198;19.796;2024-01-11T03:39:05;23.30;;;13.10;;
52934;SDS011;38802;50.198;19.796;2024-01-11T03:41:33;28.90;;;15.80;;
52934;SDS011;38802;50.198;19.796;2024-01-11T03:44:02;27.90;;;13.90;;
52934;SDS011;38802;50.198;19.796;2024-01-11T03:46:31;22.80;;;15.40;;
52934;SDS011;38802;50.198;19.796;2024-01-11T03:48:59;29.40;;;14.90;;
52934;SDS011;38802;50.198;19.796;2024-01-11T03:51:27;25.00;;;14.40;;
52934;SDS011;38802;50.198;19.796;2024-01-11T03:53:55;25.80;;;14.10;;
52934;SDS011;38802;50.198;19.796;2024-01-11T03:56:23;28.00;;;13.40;;
52934;SDS011;38802;50.198;19.796;2024-01-11T03:58:51;24.50;;;12.90;;
52934;SDS011;38802;50.198;19.796;2024-01-11T04:01:19;20.80;;;12.10;;
52934;SDS011;38802;50.198;19.796;2024-01-11T04:03:48;20.90;;;13.50;;
52934;SDS011;38802;50.198;19.796;2024-01-11T04:06:21;22.20;;;12.80;;
52934;SDS011;38802;50.198;19.796;2024-01-11T04:08:50;18.20;;;12.70;;
52934;SDS011;38802;50.198;19.796;2024-01-11T04:11:18;17.30;;;10.70;;
52934;SDS011;38802;50.198;19.796;2024-01-11T04:13:46;18.40;;;11.20;;
52934;SDS011;38802;50.198;19.796;2024-01-11T04:16:14;16.90;;;12.50;;
52934;SDS011;38802;50.198;19.796;2024-01-11T04:18:42;15.80;;;9.80;;
52934;SDS011;38802;50.198;19.796;2024-01-11T04:21:23;19.20;;;11.30;;
52934;SDS011;38802;50.198;19.796;2024-01-11T04:23:52;18.10;;;12.10;;
52934;SDS011;38802;50.198;19.796;2024-01-11T04:26:20;14.30;;;11.60;;
52934;SDS011;38802;50.198;19.796;2024-01-11T04:28:49;14.70;;;10.90;;
52934;SDS011;38802;50.198;19.796;2024-01-11T04:31:18;16.00;;;11.30;;
52934;SDS011;38802;50.198;19.796;2024-01-11T04:33:46;12.80;;;9.80;;
52934;SDS011;38802;50.198;19.796;2024-01-11T04:36:14;15.50;;;9.80;;
52934;SDS011;38802;50.198;19.796;2024-01-11T04:38:42;12.00;;;10.50;;
52934;SDS011;38802;50.198;19.796;2024-01-11T04:41:12;17.40;;;11.30;;
52934;SDS011;38802;50.198;19.796;2024-01-11T04:43:41;15.40;;;9.80;;
52934;SDS011;38802;50.198;19.796;2024-01-11T04:46:17;14.30;;;10.90;;
52934;SDS011;38802;50.198;19.796;2024-01-11T04:48:47;16.80;;;10.70;;
52934;SDS011;38802;50.198;19.796;2024-01-11T04:51:17;20.70;;;11.80;;
52934;SDS011;38802;50.198;19.796;2024-01-11T04:53:45;19.60;;;10.20;;
52934;SDS011;38802;50.198;19.796;2024-01-11T04:56:14;15.50;;;10.70;;
52934;SDS011;38802;50.198;19.796;2024-01-11T04:58:44;16.30;;;9.70;;
52934;SDS011;38802;50.198;19.796;2024-01-11T05:01:13;19.10;;;11.50;;
52934;SDS011;38802;50.198;19.796;2024-01-11T05:03:43;19.60;;;11.60;;
52934;SDS011;38802;50.198;19.796;2024-01-11T05:06:15;17.00;;;10.70;;
52934;SDS011;38802;50.198;19.796;2024-01-11T05:08:47;17.10;;;10.80;;
52934;SDS011;38802;50.198;19.796;2024-01-11T05:13:45;19.80;;;12.50;;
52934;SDS011;38802;50.198;19.796;2024-01-11T05:18:51;19.80;;;11.30;;
52934;SDS011;38802;50.198;19.796;2024-01-11T05:21:20;22.30;;;13.10;;
52934;SDS011;38802;50.198;19.796;2024-01-11T05:23:49;21.10;;;14.20;;
52934;SDS011;38802;50.198;19.796;2024-01-11T05:26:19;24.90;;;13.50;;
52934;SDS011;38802;50.198;19.796;2024-01-11T05:28:48;28.30;;;14.90;;
52934;SDS011;38802;50.198;19.796;2024-01-11T05:31:16;26.60;;;14.80;;
52934;SDS011;38802;50.198;19.796;2024-01-11T05:33:45;23.40;;;14.30;;
52934;SDS011;38802;50.198;19.796;2024-01-11T05:36:15;29.50;;;15.70;;
52934;SDS011;38802;50.198;19.796;2024-01-11T05:38:44;25.80;;;14.60;;
52934;SDS011;38802;50.198;19.796;2024-01-11T05:41:13;29.00;;;14.80;;
52934;SDS011;38802;50.198;19.796;2024-01-11T05:43:41;32.40;;;15.90;;
52934;SDS011;38802;50.198;19.796;2024-01-11T05:46:10;29.20;;;16.00;;
52934;SDS011;38802;50.198;19.796;2024-01-11T05:48:39;30.80;;;15.20;;
52934;SDS011;38802;50.198;19.796;2024-01-11T05:51:08;24.40;;;14.70;;
52934;SDS011;38802;50.198;19.796;2024-01-11T05:53:37;33.10;;;18.10;;
52934;SDS011;38802;50.198;19.796;2024-01-11T05:56:08;38.10;;;15.60;;
52934;SDS011;38802;50.198;19.796;2024-01-11T05:58:37;35.70;;;16.10;;
52934;SDS011;38802;50.198;19.796;2024-01-11T06:01:06;43.60;;;18.50;;
52934;SDS011;38802;50.198;19.796;2024-01-11T06:03:34;41.10;;;19.10;;
52934;SDS011;38802;50.198;19.796;2024-01-11T06:06:03;42.50;;;19.90;;
52934;SDS011;38802;50.198;19.796;2024-01-11T06:08:31;47.00;;;20.50;;
52934;SDS011;38802;50.198;19.796;2024-01-11T06:11:00;43.80;;;19.80;;
52934;SDS011;38802;50.198;19.796;2024-01-11T06:13:28;43.90;;;21.10;;
52934;SDS011;38802;50.198;19.796;2024-01-11T06:15:56;47.60;;;21.90;;
52934;SDS011;38802;50.198;19.796;2024-01-11T06:18:24;48.90;;;22.60;;
52934;SDS011;38802;50.198;19.796;2024-01-11T06:20:52;41.10;;;18.70;;
52934;SDS011;38802;50.198;19.796;2024-01-11T06:23:20;43.50;;;20.30;;
52934;SDS011;38802;50.198;19.796;2024-01-11T06:25:48;37.10;;;20.20;;
52934;SDS011;38802;50.198;19.796;2024-01-11T06:28:16;46.30;;;22.40;;
52934;SDS011;38802;50.198;19.796;2024-01-11T06:30:44;39.50;;;19.00;;
52934;SDS011;38802;50.198;19.796;2024-01-11T06:33:12;41.20;;;20.70;;
52934;SDS011;38802;50.198;19.796;2024-01-11T06:35:41;38.00;;;19.10;;
52934;SDS011;38802;50.198;19.796;2024-01-11T06:38:09;44.60;;;21.10;;
52934;SDS011;38802;50.198;19.796;2024-01-11T06:40:37;51.80;;;22.80;;
52934;SDS011;38802;50.198;19.796;2024-01-11T06:43:05;48.10;;;23.40;;
52934;SDS011;38802;50.198;19.796;2024-01-11T06:45:33;54.80;;;24.70;;
52934;SDS011;38802;50.198;19.796;2024-01-11T06:48:01;48.70;;;23.70;;
52934;SDS011;38802;50.198;19.796;2024-01-11T06:50:30;53.30;;;24.40;;
52934;SDS011;38802;50.198;19.796;2024-01-11T06:52:58;55.20;;;25.50;;
52934;SDS011;38802;50.198;19.796;2024-01-11T06:55:26;54.80;;;25.00;;
52934;SDS011;38802;50.198;19.796;2024-01-11T06:57:54;52.10;;;25.40;;
52934;SDS011;38802;50.198;19.796;2024-01-11T07:00:22;53.60;;;23.70;;
52934;SDS011;38802;50.198;19.796;2024-01-11T07:02:51;48.80;;;21.80;;
52934;SDS011;38802;50.198;19.796;2024-01-11T07:05:21;55.00;;;23.80;;
52934;SDS011;38802;50.198;19.796;2024-01-11T07:07:49;52.80;;;23.30;;
52934;SDS011;38802;50.198;19.796;2024-01-11T07:10:17;49.30;;;21.30;;
52934;SDS011;38802;50.198;19.796;2024-01-11T07:12:45;53.10;;;24.70;;
52934;SDS011;38802;50.198;19.796;2024-01-11T07:15:15;49.70;;;23.90;;
52934;SDS011;38802;50.198;19.796;2024-01-11T07:17:44;49.40;;;24.90;;
52934;SDS011;38802;50.198;19.796;2024-01-11T07:20:13;53.30;;;23.40;;
52934;SDS011;38802;50.198;19.796;2024-01-11T07:22:43;48.90;;;22.30;;
52934;SDS011;38802;50.198;19.796;2024-01-11T07:25:11;49.60;;;22.20;;
52934;SDS011;38802;50.198;19.796;2024-01-11T07:27:39;43.70;;;20.80;;
52934;SDS011;38802;50.198;19.796;2024-01-11T07:30:08;48.80;;;21.30;;
52934;SDS011;38802;50.198;19.796;2024-01-11T07:32:37;37.60;;;19.20;;
52934;SDS011;38802;50.198;19.796;2024-01-11T07:35:06;32.10;;;18.80;;
52934;SDS011;38802;50.198;19.796;2024-01-11T07:37:40;33.40;;;18.60;;
52934;SDS011;38802;50.198;19.796;2024-01-11T07:40:09;35.50;;;18.20;;
52934;SDS011;38802;50.198;19.796;2024-01-11T07:42:42;33.10;;;17.60;;
52934;SDS011;38802;50.198;19.796;2024-01-11T07:45:10;28.50;;;15.50;;
52934;SDS011;38802;50.198;19.796;2024-01-11T07:47:39;34.30;;;17.10;;
52934;SDS011;38802;50.198;19.796;2024-01-11T07:50:07;31.10;;;18.80;;
52934;SDS011;38802;50.198;19.796;2024-01-11T07:52:42;30.40;;;16.60;;
52934;SDS011;38802;50.198;19.796;2024-01-11T07:55:11;36.40;;;19.20;;
52934;SDS011;38802;50.198;19.796;2024-01-11T07:57:41;42.20;;;18.70;;
52934;SDS011;38802;50.198;19.796;2024-01-11T08:00:09;36.80;;;18.40;;
52934;SDS011;38802;50.198;19.796;2024-01-11T08:02:40;32.80;;;17.10;;
52934;SDS011;38802;50.198;19.796;2024-01-11T08:05:09;35.80;;;17.00;;
52934;SDS011;38802;50.198;19.796;2024-01-11T08:07:37;28.30;;;15.80;;
52934;SDS011;38802;50.198;19.796;2024-01-11T08:10:06;28.80;;;16.20;;
52934;SDS011;38802;50.198;19.796;2024-01-11T08:12:35;35.10;;;20.00;;
52934;SDS011;38802;50.198;19.796;2024-01-11T08:15:04;31.20;;;17.90;;
52934;SDS011;38802;50.198;19.796;2024-01-11T08:17:33;31.10;;;16.90;;
52934;SDS011;38802;50.198;19.796;2024-01-11T08:20:01;24.30;;;14.30;;
52934;SDS011;38802;50.198;19.796;2024-01-11T08:22:30;34.30;;;17.30;;
52934;SDS011;38802;50.198;19.796;2024-01-11T08:25:02;32.60;;;15.20;;
52934;SDS011;38802;50.198;19.796;2024-01-11T08:27:33;29.20;;;15.10;;
52934;SDS011;38802;50.198;19.796;2024-01-11T08:30:01;30.30;;;16.60;;
52934;SDS011;38802;50.198;19.796;2024-01-11T08:32:30;31.90;;;16.70;;
52934;SDS011;38802;50.198;19.796;2024-01-11T08:34:59;30.00;;;15.40;;
52934;SDS011;38802;50.198;19.796;2024-01-11T08:37:28;27.50;;;15.00;;
52934;SDS011;38802;50.198;19.796;2024-01-11T08:39:57;18.70;;;12.00;;
52934;SDS011;38802;50.198;19.796;2024-01-11T08:42:25;28.80;;;14.90;;
52934;SDS011;38802;50.198;19.796;2024-01-11T08:44:53;26.70;;;15.60;;
52934;SDS011;38802;50.198;19.796;2024-01-11T08:47:21;30.20;;;14.10;;
52934;SDS011;38802;50.198;19.796;2024-01-11T08:49:49;26.40;;;14.60;;
52934;SDS011;38802;50.198;19.796;2024-01-11T08:52:17;23.00;;;13.30;;
52934;SDS011;38802;50.198;19.796;2024-01-11T08:54:45;20.70;;;12.50;;
52934;SDS011;38802;50.198;19.796;2024-01-11T08:57:14;22.30;;;12.50;;
52934;SDS011;38802;50.198;19.796;2024-01-11T08:59:42;22.90;;;12.50;;
52934;SDS011;38802;50.198;19.796;2024-01-11T09:02:10;27.70;;;14.30;;
52934;SDS011;38802;50.198;19.796;2024-01-11T09:04:45;25.20;;;14.00;;
52934;SDS011;38802;50.198;19.796;2024-01-11T09:07:15;25.00;;;13.70;;
52934;SDS011;38802;50.198;19.796;2024-01-11T09:09:44;25.10;;;14.10;;
52934;SDS011;38802;50.198;19.796;2024-01-11T09:12:23;19.60;;;12.60;;
52934;SDS011;38802;50.198;19.796;2024-01-11T09:14:51;26.70;;;14.60;;
52934;SDS011;38802;50.198;19.796;2024-01-11T09:17:20;28.10;;;14.40;;
52934;SDS011;38802;50.198;19.796;2024-01-11T09:19:50;24.90;;;13.20;;
52934;SDS011;38802;50.198;19.796;2024-01-11T09:22:19;30.30;;;15.50;;
52934;SDS011;38802;50.198;19.796;2024-01-11T09:24:47;27.10;;;14.00;;
52934;SDS011;38802;50.198;19.796;2024-01-11T09:27:15;24.40;;;14.80;;
52934;SDS011;38802;50.198;19.796;2024-01-11T09:29:43;24.50;;;12.30;;
52934;SDS011;38802;50.198;19.796;2024-01-11T09:32:13;23.90;;;13.30;;
52934;SDS011;38802;50.198;19.796;2024-01-11T09:34:41;28.80;;;14.50;;
52934;SDS011;38802;50.198;19.796;2024-01-11T09:37:13;23.90;;;14.50;;
52934;SDS011;38802;50.198;19.796;2024-01-11T09:39:41;28.90;;;15.40;;
52934;SDS011;38802;50.198;19.796;2024-01-11T09:42:10;27.90;;;14.90;;
52934;SDS011;38802;50.198;19.796;2024-01-11T09:44:39;32.10;;;15.80;;
52934;SDS011;38802;50.198;19.796;2024-01-11T09:47:09;32.50;;;16.90;;
52934;SDS011;38802;50.198;19.796;2024-01-11T09:49:44;30.90;;;14.80;;
52934;SDS011;38802;50.198;19.796;2024-01-11T09:52:13;26.00;;;15.00;;
52934;SDS011;38802;50.198;19.796;2024-01-11T09:54:43;31.90;;;17.70;;
52934;SDS011;38802;50.198;19.796;2024-01-11T09:57:11;32.10;;;17.20;;
52934;SDS011;38802;50.198;19.796;2024-01-11T09:59:39;33.10;;;17.60;;
52934;SDS011;38802;50.198;19.796;2024-01-11T10:02:09;30.30;;;16.70;;
52934;SDS011;38802;50.198;19.796;2024-01-11T10:04:40;41.90;;;19.70;;
52934;SDS011;38802;50.198;19.796;2024-01-11T10:07:10;34.20;;;17.50;;
52934;SDS011;38802;50.198;19.796;2024-01-11T10:09:38;32.30;;;18.20;;
52934;SDS011;38802;50.198;19.796;2024-01-11T10:12:07;39.90;;;18.50;;
52934;SDS011;38802;50.198;19.796;2024-01-11T10:14:36;36.90;;;18.90;;
52934;SDS011;38802;50.198;19.796;2024-01-11T10:17:05;40.90;;;19.00;;
52934;SDS011;38802;50.198;19.796;2024-01-11T10:19:34;39.00;;;18.70;;
52934;SDS011;38802;50.198;19.796;2024-01-11T10:22:02;36.10;;;18.60;;
52934;SDS011;38802;50.198;19.796;2024-01-11T10:24:30;40.80;;;19.30;;
52934;SDS011;38802;50.198;19.796;2024-01-11T10:26:59;36.50;;;18.30;;
52934;SDS011;38802;50.198;19.796;2024-01-11T10:29:31;35.80;;;19.30;;
52934;SDS011;38802;50.198;19.796;2024-01-11T10:32:01;37.80;;;19.90;;
52934;SDS011;38802;50.198;19.796;2024-01-11T10:34:32;40.70;;;19.50;;
52934;SDS011;38802;50.198;19.796;2024-01-11T10:37:01;40.80;;;18.90;;
52934;SDS011;38802;50.198;19.796;2024-01-11T10:39:32;39.80;;;18.10;;
52934;SDS011;38802;50.198;19.796;2024-01-11T10:42:04;32.00;;;16.90;;
52934;SDS011;38802;50.198;19.796;2024-01-11T10:44:34;43.80;;;18.90;;
52934;SDS011;38802;50.198;19.796;2024-01-11T10:47:04;39.70;;;19.70;;
52934;SDS011;38802;50.198;19.796;2024-01-11T10:49:37;47.50;;;20.30;;
52934;SDS011;38802;50.198;19.796;2024-01-11T10:52:09;38.80;;;20.10;;
52934;SDS011;38802;50.198;19.796;2024-01-11T10:54:40;48.60;;;23.20;;
52934;SDS011;38802;50.198;19.796;2024-01-11T10:57:11;42.20;;;20.20;;
52934;SDS011;38802;50.198;19.796;2024-01-11T10:59:40;43.10;;;22.30;;
52934;SDS011;38802;50.198;19.796;2024-01-11T11:02:11;43.70;;;21.90;;
52934;SDS011;38802;50.198;19.796;2024-01-11T11:04:42;41.00;;;21.60;;
52934;SDS011;38802;50.198;19.796;2024-01-11T11:07:13;46.80;;;21.70;;
52934;SDS011;38802;50.198;19.796;2024-01-11T11:09:42;43.50;;;21.10;;
52934;SDS011;38802;50.198;19.796;2024-01-11T11:12:13;44.40;;;20.60;;
52934;SDS011;38802;50.198;19.796;2024-01-11T11:14:42;41.90;;;23.20;;
52934;SDS011;38802;50.198;19.796;2024-01-11T11:17:14;43.00;;;21.20;;
52934;SDS011;38802;50.198;19.796;2024-01-11T11:19:43;43.60;;;21.70;;
52934;SDS011;38802;50.198;19.796;2024-01-11T11:22:12;44.40;;;22.20;;
52934;SDS011;38802;50.198;19.796;2024-01-11T11:24:42;46.30;;;22.00;;
52934;SDS011;38802;50.198;19.796;2024-01-11T11:27:13;42.30;;;20.70;;
52934;SDS011;38802;50.198;19.796;2024-01-11T11:29:46;42.70;;;21.90;;
52934;SDS011;38802;50.198;19.796;2024-01-11T11:32:15;44.40;;;22.50;;
52934;SDS011;38802;50.198;19.796;2024-01-11T11:34:47;48.10;;;23.80;;
52934;SDS011;38802;50.198;19.796;2024-01-11T11:37:23;40.40;;;21.90;;
52934;SDS011;38802;50.198;19.796;2024-01-11T11:39:52;45.60;;;21.00;;
52934;SDS011;38802;50.198;19.796;2024-01-11T11:42:23;48.70;;;22.50;;
52934;SDS011;38802;50.198;19.796;2024-01-11T11:45:01;43.30;;;21.80;;
52934;SDS011;38802;50.198;19.796;2024-01-11T11:47:34;46.20;;;22.10;;
52934;SDS011;38802;50.198;19.796;2024-01-11T11:50:04;48.40;;;22.00;;
52934;SDS011;38802;50.198;19.796;2024-01-11T11:52:41;55.90;;;21.60;;
52934;SDS011;38802;50.198;19.796;2024-01-11T11:55:10;50.50;;;23.50;;
52934;SDS011;38802;50.198;19.796;2024-01-11T11:57:39;50.70;;;24.50;;
52934;SDS011;38802;50.198;19.796;2024-01-11T12:00:12;49.50;;;23.80;;
52934;SDS011;38802;50.198;19.796;2024-01-11T12:02:43;55.20;;;25.30;;
52934;SDS011;38802;50.198;19.796;2024-01-11T12:05:11;37.00;;;19.30;;
52934;SDS011;38802;50.198;19.796;2024-01-11T12:07:40;50.70;;;23.90;;
52934;SDS011;38802;50.198;19.796;2024-01-11T12:10:08;51.90;;;24.50;;
52934;SDS011;38802;50.198;19.796;2024-01-11T12:12:36;47.70;;;22.90;;
52934;SDS011;38802;50.198;19.796;2024-01-11T12:15:04;45.00;;;23.70;;
52934;SDS011;38802;50.198;19.796;2024-01-11T12:17:36;51.30;;;23.60;;
52934;SDS011;38802;50.198;19.796;2024-01-11T12:20:06;53.40;;;25.30;;
52934;SDS011;38802;50.198;19.796;2024-01-11T12:22:35;48.20;;;24.30;;
52934;SDS011;38802;50.198;19.796;2024-01-11T12:25:03;54.10;;;22.50;;
52934;SDS011;38802;50.198;19.796;2024-01-11T12:27:32;51.70;;;25.20;;
52934;SDS011;38802;50.198;19.796;2024-01-11T12:30:00;48.60;;;25.10;;
52934;SDS011;38802;50.198;19.796;2024-01-11T12:32:29;58.80;;;24.90;;
52934;SDS011;38802;50.198;19.796;2024-01-11T12:34:58;53.60;;;24.30;;
52934;SDS011;38802;50.198;19.796;2024-01-11T12:37:26;55.40;;;26.80;;
52934;SDS011;38802;50.198;19.796;2024-01-11T12:39:58;50.00;;;24.70;;
52934;SDS011;38802;50.198;19.796;2024-01-11T12:42:27;67.50;;;28.90;;
52934;SDS011;38802;50.198;19.796;2024-01-11T12:44:55;55.90;;;27.00;;
52934;SDS011;38802;50.198;19.796;2024-01-11T12:47:26;56.10;;;27.20;;
52934;SDS011;38802;50.198;19.796;2024-01-11T12:49:55;50.80;;;24.50;;
52934;SDS011;38802;50.198;19.796;2024-01-11T12:52:24;51.10;;;23.00;;
52934;SDS011;38802;50.198;19.796;2024-01-11T12:54:55;52.70;;;25.30;;
52934;SDS011;38802;50.198;19.796;2024-01-11T12:57:24;56.80;;;24.70;;
52934;SDS011;38802;50.198;19.796;2024-01-11T12:59:53;56.60;;;25.90;;
52934;SDS011;38802;50.198;19.796;2024-01-11T13:02:21;61.90;;;26.50;;
52934;SDS011;38802;50.198;19.796;2024-01-11T13:04:50;57.20;;;27.20;;
52934;SDS011;38802;50.198;19.796;2024-01-11T13:07:18;64.90;;;29.10;;
52934;SDS011;38802;50.198;19.796;2024-01-11T13:09:46;57.30;;;26.10;;
52934;SDS011;38802;50.198;19.796;2024-01-11T13:12:15;68.60;;;29.50;;
52934;SDS011;38802;50.198;19.796;2024-01-11T13:14:43;73.50;;;32.10;;
52934;SDS011;38802;50.198;19.796;2024-01-11T13:17:11;74.00;;;31.50;;
52934;SDS011;38802;50.198;19.796;2024-01-11T13:19:39;80.10;;;32.90;;
52934;SDS011;38802;50.198;19.796;2024-01-11T13:22:07;82.50;;;34.10;;
52934;SDS011;38802;50.198;19.796;2024-01-11T13:24:35;65.20;;;29.50;;
52934;SDS011;38802;50.198;19.796;2024-01-11T13:27:03;71.90;;;32.00;;
52934;SDS011;38802;50.198;19.796;2024-01-11T13:29:32;79.80;;;34.40;;
52934;SDS011;38802;50.198;19.796;2024-01-11T13:32:00;87.80;;;35.20;;
52934;SDS011;38802;50.198;19.796;2024-01-11T13:34:32;82.00;;;35.80;;
52934;SDS011;38802;50.198;19.796;2024-01-11T13:37:01;85.60;;;38.30;;
52934;SDS011;38802;50.198;19.796;2024-01-11T13:39:30;87.70;;;36.00;;
52934;SDS011;38802;50.198;19.796;2024-01-11T13:41:59;88.40;;;36.00;;
52934;SDS011;38802;50.198;19.796;2024-01-11T13:44:27;85.90;;;34.70;;
52934;SDS011;38802;50.198;19.796;2024-01-11T13:46:55;78.90;;;33.70;;
52934;SDS011;38802;50.198;19.796;2024-01-11T13:49:23;94.50;;;38.40;;
52934;SDS011;38802;50.198;19.796;2024-01-11T13:51:53;103.00;;;39.20;;
52934;SDS011;38802;50.198;19.796;2024-01-11T13:54:28;98.80;;;42.30;;
52934;SDS011;38802;50.198;19.796;2024-01-11T13:56:56;93.70;;;37.90;;
52934;SDS011;38802;50.198;19.796;2024-01-11T13:59:25;97.90;;;40.20;;
52934;SDS011;38802;50.198;19.796;2024-01-11T14:01:53;96.90;;;39.00;;
52934;SDS011;38802;50.198;19.796;2024-01-11T14:04:21;102.20;;;39.70;;
52934;SDS011;38802;50.198;19.796;2024-01-11T14:06:51;101.60;;;42.90;;
52934;SDS011;38802;50.198;19.796;2024-01-11T14:09:20;102.00;;;40.40;;
52934;SDS011;38802;50.198;19.796;2024-01-11T14:11:50;91.30;;;38.90;;
52934;SDS011;38802;50.198;19.796;2024-01-11T14:14:18;113.30;;;44.10;;
52934;SDS011;38802;50.198;19.796;2024-01-11T14:16:48;112.90;;;45.70;;
52934;SDS011;38802;50.198;19.796;2024-01-11T14:19:18;117.30;;;45.40;;
52934;SDS011;38802;50.198;19.796;2024-01-11T14:21:47;106.00;;;42.20;;
52934;SDS011;38802;50.198;19.796;2024-01-11T14:24:15;94.00;;;37.80;;